Terminal Aerodrome Forecast
Issued by NWS Billings, MT

Home | Current Version | Previous Version | Text Only | Print | Product List | Glossary On
Versions: 1 2 3 4 5 6 7 8 9 10 11 12 13 14 15 16 17 18 19 20 21 22
000
FTUS45 KBYZ 211137
TAFMLS
TAF
KMLS 211137Z 2112/2212 15010KT P6SM SCT080 BKN150 OVC250
     FM211400 15010KT P6SM VCSH BKN060 OVC150
      TEMPO 2114/2116 24015G25KT 5SM -FZRA OVC040
     FM211600 24010KT P6SM -SHRA BKN040 OVC090 WS020/28050KT
      TEMPO 2116/2120 27025G40KT 5SM -SHRA SCT020 OVC040
     FM212000 27020G30KT P6SM VCSH OVC050
     FM220400 32020G30KT P6SM VCSH BKN030=

USA.gov is the U.S. government's official web portal to all federal, state and local government web resources and services.